女満別空港の過去48時間の天気

女満別空港 (Memanbetsu)

現在時刻: 4/26 20:29 JST (4/26 11:29 UTC) 以下の時間は現地時間です。

過去48時間のMETAR気象情報
時間 風向 風速(m/s) 視程 気温(℃) 湿度(%) 気圧(hPa) 天気現象
26 20:00 不定 1 10km以上 5 93 999
26 19:00 不定 1 10km以上 6 87 999
26 18:00 3 10km以上 7 87 998
26 17:00 不定 1 10km以上 10 66 998
26 16:00 北北西 2 10km以上 8 81 998
26 15:00 北北西 3 10km以上 7 81 999 弱いしゅう雨
26 14:00 4 10km以上 6 87 999 弱いしゅう雨
26 13:00 北北西 3 10km以上 5 87 999 弱いしゅう雨
26 12:00 北西 4 10km以上 5 87 999 弱いしゅう雨
26 11:00 7 5,000m 4 93 999 弱いしゅう雨 もや
26 10:00 北北西 4 8,000m 5 87 999 弱いしゅう雨
26 09:38 北北西 3 8,000m 5 87 999 弱いしゅう雨
26 09:00 4 4,500m 4 93 1000 弱いしゅう雨 もや
26 08:00 北北西 5 4,500m 4 93 1000 弱いしゅう雨 もや
26 07:45 北北西 5 4,000m 4 87 1000 弱いしゅう雨 もや
25 20:00 東北東 3 10km以上 8 53 1009
25 19:00 不定 1 10km以上 8 49 1009
25 18:00 南西 2 10km以上 9 46 1010
25 17:00 南南西 5 10km以上 10 40 1010
25 16:00 6 10km以上 10 50 1011
25 15:00 南南東 6 10km以上 11 40 1011
25 14:00 南南東 7 10km以上 13 35 1011
25 13:00 南南東 8 10km以上 13 33 1012
25 12:00 南南東 8 10km以上 13 33 1013
25 11:00 3 10km以上 13 35 1013
25 10:00 不定 2 10km以上 13 38 1014
25 09:00 不定 1 10km以上 10 50 1015
25 08:00 2 10km以上 9 57 1015
25 07:45 2 10km以上 8 61 1016
RJCM 261100Z VRB02KT 9999 FEW040 05/04 Q0999
RJCM 261000Z VRB01KT 9999 FEW040 SCT/// 06/04 Q0999
RJCM 260900Z 01006KT 9999 FEW040 BKN140 07/05 Q0998
RJCM 260800Z VRB02KT 9999 FEW015 SCT100 BKN130 10/04 Q0998
RJCM 260700Z 34003KT 300V020 9999 FEW015 SCT080 BKN090 08/05 Q0998
RJCM 260600Z 34005KT 300V010 9999 -SHRA FEW007 SCT020 BKN050 07/04 Q0999
RJCM 260500Z 35007KT 9999 -SHRA FEW007 SCT015 BKN020 06/04 Q0999
RJCM 260400Z 34006KT 290V010 9999 -SHRA FEW007 SCT010 BKN035 05/03 Q0999
RJCM 260300Z 32007KT 290V360 9999 -SHRA FEW007 SCT009 BKN010 05/03 Q0999
RJCM 260200Z 36013KT 5000 -SHRA BR FEW003 SCT007 BKN010 04/03 Q0999
RJCM 260100Z 34007KT 310V020 8000 -SHRA FEW008 SCT009 BKN010 05/03 Q0999
RJCM 260038Z 33006KT 8000 -SHRA FEW005 SCT010 BKN015 05/03 Q0999 RMK 1ST005 3ST010 7ST015 A2953
RJCM 260000Z 35007KT 4500 -SHRA BR FEW003 SCT008 BKN010 04/03 Q1000
RJCM 252300Z 34009KT 4500 -SHRA BR FEW003 SCT005 BKN015 04/03 Q1000
RJCM 252245Z 34009KT 310V010 4000 -SHRA BR FEW003 SCT005 BKN010 04/02 Q1000 RMK 1ST003 3ST005 6ST010 A2955
RJCM 251100Z 07005KT 9999 FEW050 SCT070 BKN080 08/M01 Q1009
RJCM 251000Z VRB02KT 9999 FEW050 SCT070 BKN080 08/M02 Q1009
RJCM 250900Z 23004KT 9999 FEW060 SCT090 BKN100 09/M02 Q1010
RJCM 250800Z 20009KT CAVOK 10/M03 Q1010
RJCM 250700Z 19011KT 9999 FEW050 SCT100 BKN120 10/00 Q1011
RJCM 250600Z 16012KT 9999 FEW020 SCT100 BKN140 11/M02 Q1011
RJCM 250500Z 15014KT 9999 FEW025 SCT120 BKN140 13/M02 Q1011
RJCM 250400Z 16015KT 9999 FEW030 SCT130 BKN140 13/M03 Q1012
RJCM 250300Z 16016KT 9999 FEW020 SCT140 BKN160 13/M03 Q1013
RJCM 250200Z 09005KT 050V120 9999 FEW020 SCT150 BKN170 13/M02 Q1013
RJCM 250100Z VRB04KT 9999 FEW020 SCT160 BKN/// 13/M01 Q1014
RJCM 250000Z VRB01KT CAVOK 10/00 Q1015
RJCM 242300Z 19004KT 160V240 CAVOK 09/01 Q1015
RJCM 242245Z 19004KT 170V240 CAVOK 08/01 Q1016 RMK A3000